Time;durP1;ratioP1;P1;durP2;ratioP2;P2;SDS_P1;SDS_P2;PMS_P1;PMS_P2;Temp;Humidity;BMP_temperature;BMP_pressure;BME280_temperature;BME280_humidity;BME280_pressure;Samples;Min_cycle;Max_cycle;Signal;HPM_P1;HPM_P2
2022/12/17 13:06:55;;;;;;;360.33;223.88;;;9.30;69.50;;;;;;6096073;23;20026;-80
2022/12/17 13:09:27;;;;;;;343.67;207.02;;;9.30;69.50;;;;;;6096083;23;20017;-80
2022/12/17 13:12:08;;;;;;;346.73;212.93;;;9.20;69.60;;;;;;6096311;23;20061;-79
2022/12/17 13:14:51;;;;;;;338.20;206.73;;;9.20;69.60;;;;;;6098142;23;20098;-78
2022/12/17 13:17:16;;;;;;;327.75;201.63;;;9.20;69.60;;;;;;6092960;23;20440;-78
2022/12/17 13:19:57;;;;;;;322.98;197.27;;;9.20;69.80;;;;;;6097688;23;20039;-79
2022/12/17 13:22:22;;;;;;;321.67;197.10;;;9.10;69.90;;;;;;6094240;23;20038;-77
2022/12/17 13:24:50;;;;;;;317.63;191.93;;;9.10;70.00;;;;;;6097421;23;20029;-78
2022/12/17 13:27:46;;;;;;;309.98;189.02;;;9.10;70.10;;;;;;6098604;23;20010;-78
2022/12/17 13:30:20;;;;;;;314.98;188.52;;;9.10;70.30;;;;;;6080719;23;20018;-78
2022/12/17 13:33:11;;;;;;;308.02;185.93;;;9.00;70.40;;;;;;6097889;23;20014;-77
2022/12/17 13:35:52;;;;;;;310.38;184.38;;;9.00;70.50;;;;;;6095095;23;20343;-77
2022/12/17 13:38:26;;;;;;;294.27;183.23;;;9.00;70.70;;;;;;6097850;23;20005;-78
2022/12/17 13:41:10;;;;;;;302.15;182.25;;;9.00;70.80;;;;;;6098782;23;20431;-78
2022/12/17 13:43:51;;;;;;;297.10;179.10;;;9.00;70.90;;;;;;6095915;23;20065;-78
2022/12/17 13:46:21;;;;;;;296.33;179.93;;;8.90;70.80;;;;;;6096308;23;20010;-78
2022/12/17 13:48:56;;;;;;;300.40;181.45;;;8.90;70.90;;;;;;6098061;23;20006;-78
2022/12/17 13:51:23;;;;;;;298.10;182.30;;;8.90;71.00;;;;;;6095631;23;20403;-78
2022/12/17 13:53:58;;;;;;;289.25;176.65;;;8.90;71.00;;;;;;6095756;23;20010;-77
2022/12/17 13:56:32;;;;;;;288.27;177.02;;;8.90;71.10;;;;;;6095052;23;20030;-78
2022/12/17 13:59:01;;;;;;;293.48;174.00;;;8.90;71.10;;;;;;6097455;23;20018;-77
2022/12/17 14:01:27;;;;;;;284.90;172.30;;;8.90;71.20;;;;;;6097177;23;20011;-76
2022/12/17 14:03:55;;;;;;;294.80;175.90;;;8.90;71.30;;;;;;6097881;23;20062;-77
2022/12/17 14:06:24;;;;;;;293.30;174.93;;;8.90;71.30;;;;;;6097703;23;20073;-82
2022/12/17 14:08:52;;;;;;;291.48;172.27;;;8.90;71.30;;;;;;6097039;23;20014;-78
2022/12/17 14:14:07;;;;;;;274.55;166.13;;;8.80;71.40;;;;;;6097655;23;20432;-78
2022/12/17 14:16:32;;;;;;;272.65;164.63;;;8.80;71.40;;;;;;6096136;23;20002;-78
2022/12/17 14:18:58;;;;;;;278.85;166.32;;;8.80;71.50;;;;;;6097230;23;20009;-78
2022/12/17 14:21:27;;;;;;;267.27;161.68;;;8.80;71.50;;;;;;6097131;23;20006;-77
2022/12/17 14:23:54;;;;;;;262.40;158.45;;;8.80;71.50;;;;;;6097037;23;20006;-77
2022/12/17 14:26:20;;;;;;;263.52;159.95;;;8.80;71.60;;;;;;6096267;23;20014;-78
2022/12/17 14:28:53;;;;;;;259.38;157.02;;;8.80;71.60;;;;;;6096688;23;20006;-78
2022/12/17 14:31:26;;;;;;;255.27;152.93;;;8.80;71.70;;;;;;6095936;23;20014;-78
2022/12/17 14:34:06;;;;;;;258.67;152.98;;;8.80;71.70;;;;;;6098040;23;20006;-78
2022/12/17 14:36:34;;;;;;;255.88;153.45;;;8.80;71.80;;;;;;6098003;23;20006;-78
2022/12/17 14:39:02;;;;;;;246.15;148.85;;;8.70;71.80;;;;;;6098145;23;20006;-75
2022/12/17 14:44:21;;;;;;;248.52;151.15;;;8.70;71.80;;;;;;6094999;23;20111;-77
2022/12/17 14:46:47;;;;;;;246.23;150.07;;;8.70;71.90;;;;;;6096644;23;20034;-78
2022/12/17 14:49:18;;;;;;;247.63;149.57;;;8.70;71.90;;;;;;6095093;23;20339;-76
2022/12/17 14:51:45;;;;;;;247.48;148.13;;;8.70;72.10;;;;;;6095784;23;20002;-78
2022/12/17 14:54:18;;;;;;;239.65;144.48;;;8.70;72.10;;;;;;6096623;23;19998;-78
2022/12/17 14:56:46;;;;;;;245.75;147.45;;;8.70;72.00;;;;;;6095500;23;20014;-78
2022/12/17 14:59:42;;;;;;;233.18;143.77;;;8.70;72.10;;;;;;6097481;23;20025;-77
2022/12/17 15:02:07;;;;;;;235.98;142.50;;;8.70;72.10;;;;;;6094607;23;20007;-78
2022/12/17 15:04:36;;;;;;;234.15;142.25;;;8.70;72.20;;;;;;6095695;23;20134;-78
2022/12/17 15:07:02;;;;;;;226.95;140.18;;;8.70;72.20;;;;;;6094109;23;20002;-75
2022/12/17 15:09:28;;;;;;;227.82;139.85;;;8.70;72.20;;;;;;6094285;23;20002;-74
2022/12/17 15:11:53;;;;;;;224.48;136.27;;;8.70;72.20;;;;;;6094114;23;20013;-75
2022/12/17 15:14:19;;;;;;;219.48;135.30;;;8.70;72.20;;;;;;6094555;23;20013;-78
2022/12/17 15:16:45;;;;;;;227.77;138.82;;;8.70;72.20;;;;;;6095340;23;20036;-77
2022/12/17 15:19:10;;;;;;;208.68;131.38;;;8.70;72.20;;;;;;6093924;23;20491;-75
2022/12/17 15:21:36;;;;;;;215.57;133.65;;;8.70;72.20;;;;;;6099904;23;20066;-77
2022/12/17 15:24:02;;;;;;;211.75;133.32;;;8.70;72.30;;;;;;6100451;23;20009;-77
2022/12/17 15:26:27;;;;;;;219.57;135.57;;;8.70;72.30;;;;;;6100007;23;20007;-76
2022/12/17 15:28:53;;;;;;;207.20;128.60;;;8.70;72.40;;;;;;6098672;23;20077;-78
2022/12/17 15:31:18;;;;;;;213.45;132.05;;;8.70;72.60;;;;;;6096757;23;20022;-78
2022/12/17 15:33:44;;;;;;;209.18;128.32;;;8.70;72.50;;;;;;6097745;23;20002;-78
2022/12/17 15:36:10;;;;;;;198.55;126.82;;;8.60;72.40;;;;;;6099259;23;19999;-78
2022/12/17 15:38:36;;;;;;;202.18;126.60;;;8.70;72.60;;;;;;6098946;23;20006;-78
2022/12/17 15:43:49;;;;;;;194.35;123.75;;;8.60;72.50;;;;;;6082712;23;20089;-78
2022/12/17 15:46:15;;;;;;;199.75;122.40;;;8.60;72.60;;;;;;6099082;23;20010;-81
2022/12/17 15:48:40;;;;;;;195.07;124.10;;;8.60;72.70;;;;;;6096595;23;20025;-80
2022/12/17 15:51:06;;;;;;;200.18;125.70;;;8.60;72.80;;;;;;6097336;23;20010;-81
2022/12/17 15:53:31;;;;;;;186.45;119.22;;;8.70;72.90;;;;;;6099471;23;20020;-82
2022/12/17 15:56:02;;;;;;;177.00;114.13;;;8.80;72.60;;;;;;6097993;23;20003;-80
2022/12/17 15:58:28;;;;;;;176.65;110.13;;;8.70;72.40;;;;;;6096314;23;20002;-77
2022/12/17 16:00:53;;;;;;;167.02;107.47;;;8.70;72.00;;;;;;6099535;23;19999;-78
2022/12/17 16:03:19;;;;;;;174.05;104.85;;;8.70;72.20;;;;;;6094320;23;20021;-76
2022/12/17 16:05:44;;;;;;;167.57;105.95;;;8.70;72.40;;;;;;6099004;23;20002;-80
2022/12/17 16:08:10;;;;;;;162.77;102.97;;;8.70;72.40;;;;;;6099626;23;20397;-76
2022/12/17 16:10:36;;;;;;;169.45;103.30;;;8.70;72.60;;;;;;6099693;23;20032;-80
2022/12/17 16:13:02;;;;;;;157.82;102.95;;;8.70;72.60;;;;;;6098108;23;20428;-79
2022/12/17 16:15:29;;;;;;;156.93;102.40;;;8.60;72.60;;;;;;6097387;23;20006;-78
2022/12/17 16:17:55;;;;;;;152.15;97.88;;;8.60;72.80;;;;;;6097039;23;20073;-80
2022/12/17 16:20:22;;;;;;;157.15;100.18;;;8.70;72.90;;;;;;6097296;23;20006;-79
2022/12/17 16:22:48;;;;;;;152.15;97.63;;;8.60;72.80;;;;;;6097072;23;20435;-79
2022/12/17 16:25:13;;;;;;;149.68;96.88;;;8.70;72.90;;;;;;6095991;23;20005;-78
2022/12/17 16:27:39;;;;;;;157.98;98.78;;;8.60;72.90;;;;;;6098747;23;20022;-79
2022/12/17 16:30:05;;;;;;;149.05;95.60;;;8.70;73.00;;;;;;6096065;23;20022;-79
2022/12/17 16:32:32;;;;;;;148.43;95.03;;;8.60;73.00;;;;;;6100723;23;20435;-79
2022/12/17 16:34:58;;;;;;;147.40;95.95;;;8.70;73.00;;;;;;6099358;23;20002;-78
2022/12/17 16:37:23;;;;;;;140.18;92.55;;;8.70;73.00;;;;;;6100990;23;20003;-79
2022/12/17 16:39:49;;;;;;;143.60;91.30;;;8.70;73.00;;;;;;6099183;23;20048;-79
2022/12/17 16:42:15;;;;;;;140.35;90.82;;;8.70;73.00;;;;;;6100859;23;20023;-79
2022/12/17 16:44:40;;;;;;;134.48;88.72;;;8.70;72.90;;;;;;6098450;23;20024;-80
2022/12/17 16:47:06;;;;;;;139.65;90.65;;;8.70;73.00;;;;;;6097519;23;20025;-79
2022/12/17 16:49:32;;;;;;;132.45;85.88;;;8.70;73.00;;;;;;6099737;23;20458;-79
2022/12/17 16:51:58;;;;;;;132.13;86.43;;;8.70;73.20;;;;;;6097593;23;20404;-78
2022/12/17 16:54:26;;;;;;;130.68;86.38;;;8.70;73.20;;;;;;6097082;23;20336;-78
2022/12/17 16:56:52;;;;;;;129.52;86.05;;;8.70;73.10;;;;;;6095150;23;20371;-80
2022/12/17 16:59:18;;;;;;;124.35;81.68;;;8.70;73.20;;;;;;6097138;23;20074;-79
2022/12/17 17:01:46;;;;;;;131.27;85.47;;;8.70;73.20;;;;;;6096886;23;20329;-79
2022/12/17 17:04:12;;;;;;;124.53;81.40;;;8.70;73.30;;;;;;6095337;23;20057;-78
2022/12/17 17:06:40;;;;;;;125.05;80.57;;;8.70;73.20;;;;;;6096148;23;20029;-80
2022/12/17 17:09:07;;;;;;;122.43;79.13;;;8.70;73.20;;;;;;6096814;23;20090;-79
2022/12/17 17:11:33;;;;;;;123.20;80.55;;;8.70;73.30;;;;;;6099602;23;20388;-79
2022/12/17 17:13:58;;;;;;;118.93;76.20;;;8.70;73.30;;;;;;6100683;23;20078;-79
2022/12/17 17:16:24;;;;;;;117.18;77.32;;;8.70;73.20;;;;;;6102465;23;20090;-80
2022/12/17 17:18:51;;;;;;;113.05;73.97;;;8.80;73.30;;;;;;6100343;23;20473;-80
2022/12/17 17:21:19;;;;;;;116.97;76.20;;;8.80;73.70;;;;;;6100397;23;20650;-81
2022/12/17 17:23:45;;;;;;;110.75;71.65;;;8.80;73.00;;;;;;6100730;23;20010;-79
2022/12/17 17:26:12;;;;;;;112.45;73.25;;;8.80;73.00;;;;;;6099574;23;20002;-79
2022/12/17 17:28:38;;;;;;;106.57;69.85;;;8.80;72.90;;;;;;6094707;23;20101;-82
2022/12/17 17:31:06;;;;;;;107.97;71.40;;;8.80;73.10;;;;;;6099410;23;20054;-80
2022/12/17 17:33:37;;;;;;;108.70;70.10;;;8.80;73.10;;;;;;6097738;23;20006;-79
2022/12/17 17:36:08;;;;;;;98.60;66.72;;;8.80;73.20;;;;;;6095030;23;20347;-80
2022/12/17 17:38:35;;;;;;;105.45;68.15;;;8.80;73.20;;;;;;6093844;23;20006;-80
2022/12/17 17:41:02;;;;;;;102.63;67.97;;;8.80;73.20;;;;;;6098574;23;20002;-78
2022/12/17 17:43:28;;;;;;;103.10;67.25;;;8.80;73.20;;;;;;6096927;23;20010;-79
2022/12/17 17:45:54;;;;;;;100.57;67.30;;;8.80;73.20;;;;;;6099757;23;20013;-81
2022/12/17 17:48:20;;;;;;;97.82;65.57;;;8.80;73.30;;;;;;6099330;23;20006;-80
2022/12/17 17:51:00;;;;;;;98.00;64.95;;;8.80;73.20;;;;;;6094727;23;20016;-78
2022/12/17 17:53:26;;;;;;;96.53;65.22;;;8.80;73.20;;;;;;6094235;23;20012;-78
2022/12/17 17:55:51;;;;;;;93.13;62.22;;;8.80;73.30;;;;;;6095410;23;20449;-79
2022/12/17 17:58:17;;;;;;;96.57;63.20;;;8.80;73.20;;;;;;6093025;23;20440;-80
2022/12/17 18:00:43;;;;;;;92.65;63.13;;;8.80;73.20;;;;;;6096627;23;20006;-80
2022/12/17 18:03:08;;;;;;;94.85;62.20;;;8.80;73.30;;;;;;6099527;23;20010;-80
2022/12/17 18:05:37;;;;;;;89.80;60.20;;;8.80;73.20;;;;;;6104443;23;20026;-80
2022/12/17 18:08:03;;;;;;;92.32;60.85;;;8.80;73.30;;;;;;6105326;23;20013;-79
2022/12/17 18:10:29;;;;;;;88.75;58.85;;;8.80;73.30;;;;;;6102520;23;20010;-80
2022/12/17 18:15:39;;;;;;;88.03;58.20;;;8.80;73.30;;;;;;6104493;23;20009;-81
2022/12/17 18:18:04;;;;;;;92.28;61.15;;;8.80;73.40;;;;;;6103692;23;20006;-80
2022/12/17 18:20:30;;;;;;;87.55;57.63;;;8.80;73.10;;;;;;6101617;23;20007;-81
2022/12/17 18:22:56;;;;;;;87.50;57.72;;;8.80;73.20;;;;;;6103700;23;20002;-81
2022/12/17 18:25:21;;;;;;;84.90;56.05;;;8.90;73.00;;;;;;6103044;23;20034;-83
2022/12/17 18:27:50;;;;;;;84.50;54.95;;;8.90;73.00;;;;;;6101244;23;20010;-77
2022/12/17 18:30:15;;;;;;;85.97;57.00;;;8.90;73.00;;;;;;6098441;23;20018;-80
2022/12/17 18:32:41;;;;;;;83.72;55.67;;;8.90;72.90;;;;;;6096552;23;20065;-78
2022/12/17 18:35:07;;;;;;;80.18;54.90;;;9.00;73.00;;;;;;6096822;23;20013;-77
2022/12/17 18:37:32;;;;;;;76.72;52.50;;;9.00;73.00;;;;;;6096890;23;19998;-79
2022/12/17 18:39:58;;;;;;;78.55;53.25;;;9.00;73.00;;;;;;6098151;23;20077;-78
2022/12/17 18:45:08;;;;;;;75.32;52.05;;;9.00;72.90;;;;;;6096774;23;20058;-77
2022/12/17 18:47:33;;;;;;;80.97;53.03;;;9.00;73.00;;;;;;6095594;23;20010;-79
2022/12/17 18:49:59;;;;;;;74.00;50.28;;;9.00;72.90;;;;;;6097797;23;20005;-77
2022/12/17 18:52:24;;;;;;;72.47;50.20;;;9.00;73.00;;;;;;6098230;23;20002;-78
2022/12/17 18:54:50;;;;;;;72.70;50.17;;;9.00;72.90;;;;;;6098166;23;19995;-79
2022/12/17 18:57:16;;;;;;;71.53;49.05;;;9.00;72.90;;;;;;6096258;23;20010;-77
2022/12/17 18:59:41;;;;;;;73.30;49.38;;;9.00;73.10;;;;;;6094982;23;20049;-78
2022/12/17 19:02:11;;;;;;;72.97;49.90;;;9.00;73.30;;;;;;6096323;23;20002;-77
2022/12/17 19:04:37;;;;;;;66.95;48.00;;;8.90;73.30;;;;;;6096471;23;20155;-78
2022/12/17 19:07:02;;;;;;;69.88;48.72;;;8.90;73.40;;;;;;6095149;23;20044;-77
2022/12/17 19:09:33;;;;;;;68.80;48.08;;;8.90;73.50;;;;;;6095225;23;20497;-77
2022/12/17 19:11:58;;;;;;;69.75;47.28;;;8.90;73.50;;;;;;6096625;23;20320;-77
2022/12/17 19:14:24;;;;;;;67.93;46.25;;;8.90;73.50;;;;;;6094988;23;20006;-78
2022/12/17 19:16:52;;;;;;;67.38;46.55;;;8.90;73.60;;;;;;6097179;23;19998;-79
2022/12/17 19:19:18;;;;;;;67.07;46.03;;;8.90;73.70;;;;;;6095667;23;20042;-79
2022/12/17 19:21:44;;;;;;;66.97;46.10;;;8.90;73.80;;;;;;6097069;23;20002;-79
2022/12/17 19:24:15;;;;;;;63.90;46.13;;;8.80;73.70;;;;;;6097102;23;20013;-79
2022/12/17 19:26:41;;;;;;;65.50;44.53;;;8.90;73.80;;;;;;6095336;23;20014;-77
2022/12/17 19:29:07;;;;;;;62.28;44.83;;;8.80;73.80;;;;;;6094100;23;20161;-77
2022/12/17 19:31:34;;;;;;;61.83;44.38;;;8.80;73.80;;;;;;6096394;23;20057;-78
2022/12/17 19:34:02;;;;;;;64.60;45.03;;;8.90;73.80;;;;;;6096621;23;20013;-78
2022/12/17 19:36:30;;;;;;;64.05;43.25;;;8.80;73.80;;;;;;6097321;23;20065;-78
2022/12/17 19:38:59;;;;;;;60.20;41.72;;;8.80;73.80;;;;;;6095207;23;20432;-80
2022/12/17 19:41:26;;;;;;;61.78;43.00;;;8.80;73.80;;;;;;6099742;23;20006;-80
2022/12/17 19:43:54;;;;;;;60.08;42.80;;;8.80;73.70;;;;;;6097396;23;20524;-78
2022/12/17 19:46:20;;;;;;;56.53;40.95;;;8.80;73.90;;;;;;6094786;23;20100;-78
2022/12/17 19:48:47;;;;;;;58.80;42.28;;;8.80;73.80;;;;;;6094988;23;20416;-79
2022/12/17 19:51:14;;;;;;;60.17;41.92;;;8.80;73.80;;;;;;6100357;23;20085;-78
2022/12/17 19:53:41;;;;;;;56.25;40.88;;;8.80;73.80;;;;;;6096204;23;20006;-78
2022/12/17 20:38:57;;;;;;;50.67;38.35;;;9.00;73.20;;;;;;5114510;27;20406;-80
2022/12/17 20:41:25;;;;;;;50.25;36.10;;;9.00;73.50;;;;;;5113072;28;20119;-81
2022/12/17 20:43:52;;;;;;;49.55;36.50;;;9.00;73.50;;;;;;5112258;28;20077;-81
2022/12/17 20:46:19;;;;;;;52.47;36.72;;;9.00;73.50;;;;;;5109747;28;20042;-81
2022/12/17 20:48:45;;;;;;;46.63;34.65;;;9.00;73.70;;;;;;5109508;28;20020;-80
2022/12/17 20:51:17;;;;;;;51.10;36.63;;;9.00;73.70;;;;;;5111712;28;20510;-82
2022/12/17 20:53:43;;;;;;;47.53;34.33;;;9.00;73.50;;;;;;5115525;28;20020;-82
2022/12/17 20:56:14;;;;;;;47.88;35.30;;;9.00;73.70;;;;;;5117704;28;20028;-79
2022/12/17 20:58:41;;;;;;;47.83;35.53;;;8.90;73.80;;;;;;5114972;28;20757;-80
2022/12/17 21:01:19;;;;;;;49.38;35.35;;;8.90;73.80;;;;;;5115114;28;20035;-82
2022/12/17 21:03:46;;;;;;;46.15;34.17;;;9.00;73.90;;;;;;5120115;28;20050;-82
2022/12/17 21:06:12;;;;;;;48.65;34.67;;;8.90;73.80;;;;;;5121635;28;20031;-81
2022/12/17 21:08:39;;;;;;;45.88;33.30;;;8.90;73.80;;;;;;5115876;28;20483;-80
2022/12/17 21:11:05;;;;;;;45.38;33.40;;;9.00;74.00;;;;;;5110401;28;20077;-82
2022/12/17 21:13:31;;;;;;;44.15;32.20;;;8.90;73.90;;;;;;5121408;28;20031;-79
2022/12/17 21:16:05;;;;;;;46.80;34.20;;;8.90;73.90;;;;;;5118909;28;20091;-81
2022/12/17 21:18:32;;;;;;;44.25;32.85;;;8.90;74.30;;;;;;5120163;28;20024;-80
2022/12/17 21:21:09;;;;;;;43.22;32.08;;;8.90;74.40;;;;;;5117451;28;20028;-80
2022/12/17 21:23:36;;;;;;;45.63;33.25;;;8.90;74.00;;;;;;5119673;28;20033;-81
2022/12/17 21:26:05;;;;;;;43.00;31.88;;;8.90;74.00;;;;;;5121037;28;20441;-82
2022/12/17 21:28:32;;;;;;;44.28;32.38;;;8.90;73.90;;;;;;5120691;28;20024;-81
2022/12/17 21:30:57;;;;;;;43.50;32.25;;;8.90;73.90;;;;;;5118731;28;20032;-81
2022/12/17 21:33:23;;;;;;;42.40;31.15;;;8.90;74.00;;;;;;5120180;28;20028;-81
2022/12/17 21:35:49;;;;;;;42.28;31.27;;;9.00;74.00;;;;;;5120099;28;20042;-80
2022/12/17 21:38:15;;;;;;;46.92;33.53;;;8.90;73.90;;;;;;5115895;28;20423;-80
2022/12/17 21:40:41;;;;;;;41.00;31.58;;;8.90;74.00;;;;;;5099951;28;20027;-80
2022/12/17 21:43:07;;;;;;;43.30;31.02;;;8.90;74.00;;;;;;5084002;28;20460;-81
2022/12/17 21:45:35;;;;;;;41.33;31.05;;;8.90;73.90;;;;;;5085422;28;20020;-80
2022/12/17 21:48:02;;;;;;;41.15;29.48;;;8.90;74.00;;;;;;5074762;28;20476;-77
2022/12/17 21:50:28;;;;;;;41.80;30.42;;;8.90;73.90;;;;;;5072659;28;20031;-79
2022/12/17 21:52:53;;;;;;;38.45;29.38;;;8.90;74.00;;;;;;5077893;28;20024;-77
2022/12/17 21:55:19;;;;;;;40.47;30.45;;;9.00;74.00;;;;;;5075734;28;20050;-79
2022/12/17 21:57:44;;;;;;;41.75;30.63;;;9.00;74.10;;;;;;5073853;28;20025;-79
2022/12/17 22:00:11;;;;;;;41.35;30.25;;;8.90;73.90;;;;;;5076225;28;20569;-80
2022/12/17 22:02:36;;;;;;;41.25;31.13;;;9.00;74.00;;;;;;5073245;28;20035;-77
2022/12/17 22:05:02;;;;;;;39.85;29.90;;;8.90;74.00;;;;;;5073107;28;20028;-82
2022/12/17 22:07:28;;;;;;;40.92;29.83;;;9.00;73.80;;;;;;5073495;28;20111;-77
2022/12/17 22:09:53;;;;;;;37.85;28.27;;;9.00;73.90;;;;;;5074065;28;20020;-77
2022/12/17 22:15:04;;;;;;;38.97;28.50;;;9.00;73.90;;;;;;5073043;28;20077;-75
2022/12/17 22:17:29;;;;;;;37.05;28.17;;;9.00;73.90;;;;;;5072938;28;20020;-75
2022/12/17 22:19:55;;;;;;;37.30;27.77;;;9.00;73.80;;;;;;5073081;28;20503;-75
2022/12/17 22:22:20;;;;;;;38.53;28.20;;;9.00;74.40;;;;;;5072504;28;20515;-75
2022/12/17 22:24:46;;;;;;;35.85;27.58;;;9.00;73.80;;;;;;5071523;28;20081;-75
2022/12/17 22:27:11;;;;;;;36.38;27.17;;;9.00;74.00;;;;;;5071380;28;20062;-75
2022/12/17 22:35:05;;;;;;;34.80;26.80;;;9.00;73.80;;;;;;5072941;28;20032;-75
2022/12/17 22:37:31;;;;;;;37.88;27.17;;;9.00;73.90;;;;;;5072314;28;20067;-72
2022/12/17 22:39:56;;;;;;;35.03;26.05;;;9.00;74.00;;;;;;5071379;28;20067;-75
2022/12/17 22:45:06;;;;;;;34.35;25.30;;;9.00;73.90;;;;;;5067270;28;20116;-75
2022/12/17 22:47:32;;;;;;;34.03;25.85;;;9.00;73.80;;;;;;5087382;28;20081;-72
2022/12/17 22:49:57;;;;;;;34.35;25.58;;;9.00;73.90;;;;;;5076315;28;20100;-75
2022/12/17 22:52:23;;;;;;;32.75;24.77;;;9.00;73.90;;;;;;5072095;28;20105;-75
2022/12/17 22:54:48;;;;;;;34.83;25.98;;;9.00;74.00;;;;;;5071760;28;20483;-74
2022/12/17 22:57:14;;;;;;;33.17;24.63;;;9.00;73.90;;;;;;5072744;28;20123;-75
2022/12/17 22:59:40;;;;;;;34.85;25.85;;;9.00;73.80;;;;;;5072810;28;20060;-75
2022/12/17 23:02:06;;;;;;;35.10;24.90;;;9.00;73.80;;;;;;5072513;28;20031;-75
2022/12/17 23:04:32;;;;;;;34.35;25.52;;;9.00;74.00;;;;;;5071632;28;20514;-75
2022/12/17 23:06:57;;;;;;;33.50;25.40;;;9.00;74.00;;;;;;5072625;28;20028;-75
2022/12/17 23:09:23;;;;;;;32.42;25.05;;;9.00;73.90;;;;;;5072519;28;20100;-75
2022/12/17 23:11:48;;;;;;;34.33;25.73;;;9.00;73.90;;;;;;5072321;28;20095;-75
2022/12/17 23:14:15;;;;;;;31.70;23.25;;;9.00;73.90;;;;;;5071167;28;20017;-75
2022/12/17 23:16:41;;;;;;;33.22;24.95;;;9.10;74.00;;;;;;5072501;28;20028;-75
2022/12/17 23:19:07;;;;;;;31.08;24.27;;;9.10;74.00;;;;;;5072291;28;20404;-75
2022/12/17 23:21:33;;;;;;;33.30;23.67;;;9.10;74.00;;;;;;5070953;28;20033;-75
2022/12/17 23:23:59;;;;;;;33.38;23.90;;;9.10;74.00;;;;;;5072315;28;20025;-75
2022/12/17 23:26:27;;;;;;;31.00;23.77;;;9.10;73.90;;;;;;5072213;28;20035;-75
2022/12/17 23:28:57;;;;;;;32.80;23.98;;;9.10;74.00;;;;;;5072262;28;20070;-75
2022/12/17 23:31:24;;;;;;;30.83;24.08;;;9.10;74.00;;;;;;5071953;28;20021;-75
2022/12/17 23:33:50;;;;;;;29.20;23.20;;;9.10;73.90;;;;;;5072253;28;20496;-75
2022/12/17 23:36:18;;;;;;;29.40;22.65;;;9.10;73.90;;;;;;5072350;28;20029;-75
2022/12/17 23:38:44;;;;;;;29.65;23.13;;;9.10;73.80;;;;;;5070677;28;20488;-76
2022/12/17 23:41:16;;;;;;;29.98;22.55;;;9.10;73.90;;;;;;5070509;28;20422;-76
2022/12/17 23:43:41;;;;;;;30.85;23.42;;;9.10;73.90;;;;;;5070859;28;20032;-76
2022/12/17 23:46:08;;;;;;;30.33;22.25;;;9.10;74.00;;;;;;5070742;28;20029;-75
2022/12/17 23:48:37;;;;;;;29.80;21.90;;;9.10;73.80;;;;;;5070620;28;20031;-76
2022/12/17 23:51:03;;;;;;;29.38;21.73;;;9.10;73.90;;;;;;5071608;28;20024;-75
2022/12/17 23:53:30;;;;;;;29.25;21.77;;;9.10;73.80;;;;;;5070706;28;20089;-74
2022/12/17 23:56:03;;;;;;;27.60;21.52;;;9.10;73.90;;;;;;5070668;28;20031;-75
2022/12/17 23:58:29;;;;;;;26.67;21.08;;;9.10;73.80;;;;;;5070641;28;20085;-75
